Time;durP1;ratioP1;P1;durP2;ratioP2;P2;SDS_P1;SDS_P2;PMS_P1;PMS_P2;Temp;Humidity;BMP_temperature;BMP_pressure;BME280_temperature;BME280_humidity;BME280_pressure;Samples;Min_cycle;Max_cycle;Signal;HPM_P1;HPM_P2
2022/09/25 00:00:15;;;;;;;5.83;2.07;;;10.60;99.90;;;;;;5067631;28;20044;-69
2022/09/25 00:02:41;;;;;;;4.60;1.80;;;10.60;99.90;;;;;;5059918;28;20269;-70
2022/09/25 00:05:07;;;;;;;5.67;1.67;;;10.60;99.90;;;;;;5068310;28;20262;-69
2022/09/25 00:07:32;;;;;;;9.13;1.98;;;10.50;99.90;;;;;;5063074;28;20173;-70
2022/09/25 00:09:58;;;;;;;4.83;1.87;;;10.50;99.90;;;;;;5066395;28;20044;-69
2022/09/25 00:12:24;;;;;;;4.30;1.57;;;10.50;99.90;;;;;;5059978;28;20075;-69
2022/09/25 00:14:50;;;;;;;7.87;1.73;;;10.50;99.90;;;;;;5057482;28;20052;-69
2022/09/25 00:17:16;;;;;;;4.25;1.85;;;10.50;99.90;;;;;;5064634;28;20040;-70
2022/09/25 00:19:51;;;;;;;3.67;1.38;;;10.40;99.90;;;;;;5064371;28;20032;-69
2022/09/25 00:22:21;;;;;;;8.02;1.67;;;10.50;99.90;;;;;;5062806;28;20091;-70
2022/09/25 00:24:47;;;;;;;5.22;1.80;;;10.40;99.90;;;;;;5059897;28;20500;-69
2022/09/25 00:27:14;;;;;;;7.05;1.73;;;10.40;99.90;;;;;;5063278;28;20036;-69
2022/09/25 00:29:40;;;;;;;5.72;1.65;;;10.40;99.90;;;;;;5060722;28;20286;-69
2022/09/25 00:32:09;;;;;;;5.15;1.40;;;10.40;99.90;;;;;;5060496;28;20059;-69
2022/09/25 00:34:36;;;;;;;5.00;1.50;;;10.40;99.90;;;;;;5065698;28;20044;-69
2022/09/25 00:37:02;;;;;;;2.60;1.20;;;10.40;99.90;;;;;;5065526;28;20037;-70
2022/09/25 00:39:28;;;;;;;7.77;1.40;;;10.30;99.90;;;;;;5064704;28;20526;-69
2022/09/25 00:41:53;;;;;;;4.60;1.40;;;10.50;99.90;;;;;;5059627;28;20817;-69
2022/09/25 00:44:56;;;;;;;4.93;1.40;;;10.40;99.90;;;;;;5059679;28;20740;-69
2022/09/25 00:47:52;;;;;;;3.35;1.05;;;10.40;99.90;;;;;;5056221;28;20041;-70
2022/09/25 00:50:37;;;;;;;5.18;1.17;;;10.40;99.90;;;;;;5064693;28;20040;-69
2022/09/25 00:53:13;;;;;;;6.28;1.30;;;10.30;99.90;;;;;;5065712;28;20047;-70
2022/09/25 00:55:43;;;;;;;2.15;1.08;;;10.30;99.90;;;;;;5063160;28;20094;-70
2022/09/25 00:58:12;;;;;;;4.63;1.30;;;10.30;99.90;;;;;;5066318;28;20504;-70
2022/09/25 01:00:38;;;;;;;3.05;1.30;;;10.20;99.90;;;;;;5061620;28;20040;-70
2022/09/25 01:03:04;;;;;;;4.53;1.30;;;10.20;99.90;;;;;;5061226;28;20055;-75
2022/09/25 01:05:34;;;;;;;3.83;1.27;;;10.20;99.90;;;;;;5059456;28;20123;-69
2022/09/25 01:08:04;;;;;;;4.43;1.45;;;10.10;99.90;;;;;;5061593;28;20082;-69
2022/09/25 01:10:31;;;;;;;3.88;1.98;;;10.10;99.90;;;;;;5066537;28;20040;-69
2022/09/25 01:12:58;;;;;;;5.63;1.23;;;10.00;99.90;;;;;;5062355;28;20512;-69
2022/09/25 01:15:35;;;;;;;3.53;1.20;;;10.00;99.90;;;;;;5061066;28;20294;-77
2022/09/25 01:18:19;;;;;;;6.68;1.80;;;9.90;99.90;;;;;;5073988;28;20110;-70
2022/09/25 01:21:36;;;;;;;2.67;1.42;;;10.00;99.90;;;;;;5066059;28;20028;-71
2022/09/25 01:24:20;;;;;;;2.22;0.90;;;9.90;99.90;;;;;;4988683;28;20050;-71
2022/09/25 01:27:19;;;;;;;7.45;1.20;;;9.90;99.90;;;;;;5003401;28;20049;-70
2022/09/25 01:29:49;;;;;;;;;;;9.90;99.90;;;;;;5049626;28;20049;-70
2022/09/25 01:32:37;;;;;;;2.63;1.30;;;9.90;99.90;;;;;;5071341;28;19920;-70
2022/09/25 01:35:27;;;;;;;2.30;1.17;;;9.90;99.90;;;;;;5062430;28;20107;-71
2022/09/25 01:37:58;;;;;;;5.13;1.20;;;9.90;99.90;;;;;;5061336;28;20579;-70
2022/09/25 01:40:33;;;;;;;7.65;1.30;;;9.90;99.90;;;;;;5066052;28;20438;-71
2022/09/25 01:43:33;;;;;;;2.05;1.10;;;9.90;99.90;;;;;;5057537;28;20056;-71
2022/09/25 01:46:12;;;;;;;4.18;1.92;;;10.00;99.90;;;;;;5064369;28;20032;-71
2022/09/25 01:48:40;;;;;;;7.30;1.10;;;9.90;99.90;;;;;;5061542;28;20139;-70
2022/09/25 01:51:28;;;;;;;8.10;1.50;;;9.90;99.90;;;;;;5065108;28;20040;-70
2022/09/25 01:53:58;;;;;;;3.75;1.45;;;9.90;99.90;;;;;;5063443;28;20506;-70
2022/09/25 01:56:32;;;;;;;3.97;1.88;;;9.80;99.90;;;;;;5067825;28;20040;-70
2022/09/25 01:59:21;;;;;;;4.38;1.13;;;9.80;99.90;;;;;;5065001;28;20459;-70
2022/09/25 02:01:47;;;;;;;3.67;1.40;;;9.80;99.90;;;;;;5063193;28;20065;-70
2022/09/25 02:04:54;;;;;;;2.55;1.00;;;9.90;99.90;;;;;;5098511;22;20052;-81
2022/09/25 02:08:14;;;;;;;1.80;0.90;;;9.90;99.90;;;;;;5052857;28;20059;-82
2022/09/25 02:11:18;;;;;;;2.08;1.10;;;9.90;99.90;;;;;;5050460;28;20040;-82
2022/09/25 02:14:14;;;;;;;3.00;1.15;;;10.10;99.90;;;;;;5048985;28;20048;-84
2022/09/25 02:17:02;;;;;;;2.50;1.08;;;10.10;99.90;;;;;;5028454;28;20048;-84
2022/09/25 02:22:23;;;;;;;3.80;1.00;;;10.10;99.90;;;;;;5069034;28;20044;-70
2022/09/25 02:24:53;;;;;;;5.07;0.98;;;10.20;99.90;;;;;;5055768;28;20048;-69
2022/09/25 02:27:21;;;;;;;5.25;1.13;;;10.20;99.90;;;;;;5046429;28;20032;-70
2022/09/25 02:29:47;;;;;;;2.95;1.23;;;10.20;99.90;;;;;;5060920;28;20051;-70
2022/09/25 02:32:16;;;;;;;6.70;1.20;;;10.30;99.90;;;;;;5060190;28;20032;-70
2022/09/25 02:34:42;;;;;;;2.88;1.20;;;10.20;99.90;;;;;;5057075;28;20805;-70
2022/09/25 02:37:15;;;;;;;3.38;1.38;;;10.20;99.90;;;;;;5058365;28;20097;-70
2022/09/25 02:39:44;;;;;;;3.13;1.00;;;10.20;99.90;;;;;;5056145;28;20135;-69
2022/09/25 02:42:35;;;;;;;2.25;1.13;;;10.10;99.90;;;;;;5060139;28;20084;-69
2022/09/25 02:45:09;;;;;;;4.57;0.95;;;10.10;99.90;;;;;;5054874;28;20431;-70
2022/09/25 02:47:43;;;;;;;2.38;1.30;;;10.10;99.90;;;;;;5063703;28;20443;-70
2022/09/25 02:50:25;;;;;;;7.70;1.35;;;10.00;99.90;;;;;;5054708;28;20456;-70
2022/09/25 02:53:06;;;;;;;3.83;1.10;;;10.00;99.90;;;;;;5056842;28;20051;-70
2022/09/25 02:56:12;;;;;;;3.53;0.88;;;9.90;99.90;;;;;;5066410;28;20124;-70
2022/09/25 02:58:49;;;;;;;3.40;0.82;;;9.90;99.90;;;;;;5013955;28;20063;-69
2022/09/25 03:01:17;;;;;;;2.50;1.00;;;9.90;99.90;;;;;;5054461;28;20045;-69
2022/09/25 03:03:50;;;;;;;4.68;0.80;;;9.80;99.90;;;;;;5059635;28;20162;-70
2022/09/25 03:06:15;;;;;;;3.05;1.38;;;9.80;99.90;;;;;;5061554;28;20062;-69
2022/09/25 03:08:48;;;;;;;1.93;1.13;;;9.80;99.90;;;;;;5063892;28;20037;-70
2022/09/25 03:11:18;;;;;;;6.25;1.45;;;9.70;99.90;;;;;;5057856;28;20056;-70
2022/09/25 03:13:45;;;;;;;2.80;0.77;;;9.70;99.90;;;;;;5057067;28;20048;-70
2022/09/25 03:16:13;;;;;;;;;;;9.70;99.90;;;;;;5062284;28;20059;-69
2022/09/25 03:18:39;;;;;;;3.33;1.00;;;9.60;99.90;;;;;;5052602;28;20107;-69
2022/09/25 03:21:05;;;;;;;2.60;0.90;;;9.60;99.90;;;;;;5056303;28;20115;-69
2022/09/25 03:23:31;;;;;;;5.15;1.00;;;9.60;99.90;;;;;;5065089;28;20044;-69
2022/09/25 03:25:57;;;;;;;2.28;1.73;;;9.60;99.90;;;;;;5055553;28;20127;-69
2022/09/25 03:28:23;;;;;;;6.03;1.17;;;9.60;99.90;;;;;;5057621;28;20041;-69
2022/09/25 03:31:01;;;;;;;2.55;0.80;;;9.60;99.90;;;;;;5061505;28;20041;-70
2022/09/25 03:33:29;;;;;;;2.88;0.63;;;9.70;99.90;;;;;;5058800;28;20127;-70
2022/09/25 03:36:09;;;;;;;3.08;0.70;;;9.70;99.90;;;;;;5056855;28;20047;-70
2022/09/25 03:38:36;;;;;;;2.33;0.80;;;9.80;99.90;;;;;;5061228;28;20040;-70
2022/09/25 03:41:02;;;;;;;2.83;0.70;;;9.90;99.90;;;;;;5058116;28;20050;-70
2022/09/25 03:43:32;;;;;;;4.32;1.08;;;9.90;99.90;;;;;;5057445;28;20044;-70
2022/09/25 03:45:58;;;;;;;3.80;1.17;;;10.00;99.90;;;;;;5061745;28;20048;-70
2022/09/25 03:48:23;;;;;;;1.53;0.60;;;10.10;99.90;;;;;;5059991;28;20043;-70
2022/09/25 03:50:49;;;;;;;4.20;0.87;;;10.10;99.90;;;;;;5056099;28;20036;-69
2022/09/25 03:53:17;;;;;;;2.47;0.43;;;10.10;99.90;;;;;;5054779;28;20033;-69
2022/09/25 03:55:45;;;;;;;1.67;0.55;;;10.20;99.90;;;;;;5059747;28;20044;-70
2022/09/25 03:58:13;;;;;;;1.85;0.47;;;10.30;99.90;;;;;;5062248;28;20071;-70
2022/09/25 04:00:40;;;;;;;2.17;0.60;;;10.30;99.90;;;;;;5057299;28;20536;-70
2022/09/25 04:03:05;;;;;;;2.30;0.60;;;10.30;99.90;;;;;;5060561;28;20036;-70
2022/09/25 04:05:31;;;;;;;2.57;0.53;;;10.40;99.90;;;;;;5073343;28;20049;-70
2022/09/25 04:07:57;;;;;;;6.40;1.23;;;10.40;99.90;;;;;;5059077;28;20286;-70
2022/09/25 04:10:23;;;;;;;1.75;0.60;;;10.40;99.90;;;;;;5056912;28;20305;-70
2022/09/25 04:12:53;;;;;;;1.25;0.57;;;10.40;99.90;;;;;;5058562;28;20131;-70
2022/09/25 04:15:22;;;;;;;1.48;0.60;;;10.40;99.90;;;;;;5059952;28;20047;-70
2022/09/25 04:17:48;;;;;;;1.35;0.68;;;10.40;99.90;;;;;;5055875;28;20055;-70
2022/09/25 04:20:14;;;;;;;1.70;0.60;;;10.40;99.90;;;;;;5052593;28;20059;-70
2022/09/25 04:22:39;;;;;;;3.95;0.57;;;10.40;99.90;;;;;;5055948;28;20041;-70
2022/09/25 04:25:06;;;;;;;5.47;0.70;;;10.40;99.90;;;;;;5064187;28;20449;-70
2022/09/25 04:27:32;;;;;;;1.92;0.45;;;10.40;99.90;;;;;;5061411;28;20036;-70
2022/09/25 04:29:58;;;;;;;2.53;0.60;;;10.40;99.90;;;;;;5053502;28;20037;-70
2022/09/25 04:35:08;;;;;;;3.58;0.55;;;10.50;99.90;;;;;;5051333;28;20049;-70
2022/09/25 04:37:34;;;;;;;1.20;0.52;;;10.50;99.90;;;;;;5037903;28;20535;-70
2022/09/25 04:39:59;;;;;;;1.60;0.63;;;10.50;99.90;;;;;;5057011;28;20493;-70
2022/09/25 04:42:25;;;;;;;4.18;0.63;;;10.60;99.90;;;;;;5062951;28;20033;-70
2022/09/25 04:44:55;;;;;;;0.53;0.30;;;10.60;99.90;;;;;;5052083;28;20391;-70
2022/09/25 04:47:22;;;;;;;2.83;0.60;;;10.60;99.90;;;;;;5062105;28;20036;-70
2022/09/25 04:49:48;;;;;;;2.90;0.52;;;10.60;99.90;;;;;;5053914;28;20094;-70
2022/09/25 04:52:16;;;;;;;5.50;1.00;;;10.70;99.90;;;;;;5060632;28;20135;-70
2022/09/25 04:54:42;;;;;;;5.00;1.10;;;10.70;99.90;;;;;;5055202;28;20068;-70
2022/09/25 04:57:19;;;;;;;4.38;1.27;;;10.70;99.90;;;;;;5044628;28;20067;-70
2022/09/25 04:59:45;;;;;;;;;;;10.70;99.90;;;;;;5054483;28;20045;-70
2022/09/25 05:02:11;;;;;;;3.83;0.90;;;10.80;99.90;;;;;;5053479;28;20319;-70
2022/09/25 05:04:37;;;;;;;1.88;0.60;;;10.80;99.90;;;;;;5054447;28;20044;-70
2022/09/25 05:07:03;;;;;;;4.97;0.80;;;10.80;99.90;;;;;;5061549;28;20106;-70
2022/09/25 05:09:29;;;;;;;6.50;0.80;;;10.90;99.90;;;;;;5064167;28;20049;-70
2022/09/25 05:11:55;;;;;;;2.17;0.50;;;10.90;99.90;;;;;;5052518;28;20051;-70
2022/09/25 05:14:22;;;;;;;1.02;0.50;;;10.90;99.90;;;;;;5051752;28;20059;-70
2022/09/25 05:16:47;;;;;;;2.38;0.80;;;10.90;99.90;;;;;;5059667;28;20044;-70
2022/09/25 05:19:14;;;;;;;3.17;0.98;;;10.90;99.90;;;;;;5060358;28;20097;-70
2022/09/25 05:21:41;;;;;;;3.33;0.70;;;10.90;99.90;;;;;;5053429;28;20041;-72
2022/09/25 05:24:07;;;;;;;0.88;0.43;;;10.90;99.90;;;;;;5059956;28;20135;-71
2022/09/25 05:26:33;;;;;;;;;;;10.90;99.90;;;;;;5049410;28;20151;-70
2022/09/25 05:29:00;;;;;;;1.67;0.43;;;10.90;99.90;;;;;;5049269;28;19999;-70
2022/09/25 05:31:26;;;;;;;1.52;0.57;;;10.90;99.90;;;;;;5056174;28;20096;-70
2022/09/25 05:33:52;;;;;;;1.63;0.60;;;10.80;99.90;;;;;;5059877;28;20111;-70
2022/09/25 05:36:19;;;;;;;1.60;0.70;;;10.90;99.90;;;;;;5059555;28;20052;-70
2022/09/25 05:38:45;;;;;;;3.15;0.80;;;10.90;99.90;;;;;;5055306;28;20444;-70
2022/09/25 05:41:11;;;;;;;1.63;0.68;;;10.80;99.90;;;;;;5058488;28;20211;-71
2022/09/25 05:43:42;;;;;;;1.25;0.60;;;10.80;99.90;;;;;;5059184;28;20051;-70
2022/09/25 05:46:09;;;;;;;4.05;0.90;;;10.80;99.90;;;;;;5052183;28;20047;-70
2022/09/25 05:48:35;;;;;;;1.35;0.50;;;10.70;99.90;;;;;;5055457;28;20531;-71
2022/09/25 05:51:01;;;;;;;6.55;1.45;;;10.80;99.90;;;;;;5058880;28;20064;-70
2022/09/25 05:53:26;;;;;;;2.27;0.83;;;10.90;99.90;;;;;;5059836;28;20122;-70
2022/09/25 05:55:57;;;;;;;6.03;0.80;;;10.80;99.90;;;;;;5057454;28;20044;-70
2022/09/25 05:58:24;;;;;;;2.35;0.70;;;10.80;99.90;;;;;;5050153;28;20124;-70
2022/09/25 06:00:50;;;;;;;1.35;0.50;;;10.90;99.90;;;;;;5057637;28;20107;-70
2022/09/25 06:03:16;;;;;;;2.95;0.70;;;10.90;99.90;;;;;;5055074;28;20037;-71
2022/09/25 06:05:45;;;;;;;6.25;0.90;;;10.90;99.90;;;;;;5050954;28;20440;-70
2022/09/25 06:08:12;;;;;;;2.03;0.70;;;10.90;99.90;;;;;;5056582;28;20043;-71
2022/09/25 06:10:37;;;;;;;;;;;10.90;99.90;;;;;;5055337;28;20417;-70
2022/09/25 06:13:04;;;;;;;3.63;1.00;;;10.90;99.90;;;;;;5057896;28;19916;-70
2022/09/25 06:15:37;;;;;;;4.07;0.82;;;10.90;99.90;;;;;;5061216;28;20213;-70
2022/09/25 06:18:05;;;;;;;2.45;1.10;;;10.90;99.90;;;;;;5047069;28;20195;-70
2022/09/25 06:20:31;;;;;;;2.35;0.82;;;10.90;99.90;;;;;;5046730;28;20040;-70
2022/09/25 06:22:59;;;;;;;3.05;0.80;;;10.90;99.90;;;;;;5038158;28;20036;-70
2022/09/25 06:25:31;;;;;;;2.13;0.73;;;11.00;99.90;;;;;;5051974;28;20407;-70
2022/09/25 06:27:59;;;;;;;1.45;0.60;;;11.00;99.90;;;;;;5050841;28;20064;-70
2022/09/25 06:30:33;;;;;;;1.52;0.65;;;11.00;99.90;;;;;;5050964;28;20445;-70
2022/09/25 06:33:06;;;;;;;2.60;0.70;;;11.00;99.90;;;;;;5056601;28;20136;-70
2022/09/25 06:35:33;;;;;;;1.80;0.70;;;11.00;99.90;;;;;;5056968;28;20088;-70
2022/09/25 06:37:59;;;;;;;4.88;1.27;;;11.00;99.90;;;;;;5064785;28;20045;-71
2022/09/25 06:40:27;;;;;;;3.72;0.88;;;11.10;99.90;;;;;;5056742;28;20059;-70
2022/09/25 06:43:02;;;;;;;2.00;0.80;;;11.00;99.90;;;;;;5037937;28;20469;-71
2022/09/25 06:45:31;;;;;;;1.25;0.75;;;11.10;99.90;;;;;;5055242;28;20050;-70
2022/09/25 06:48:08;;;;;;;3.17;0.75;;;11.20;99.90;;;;;;5049521;28;20192;-70
2022/09/25 06:50:55;;;;;;;5.60;1.58;;;11.30;99.90;;;;;;5051854;28;20049;-70
2022/09/25 06:53:23;;;;;;;2.60;1.02;;;11.30;99.90;;;;;;5056230;28;20037;-70
2022/09/25 06:55:49;;;;;;;5.97;1.00;;;11.30;99.90;;;;;;5058302;28;20056;-70
2022/09/25 06:58:17;;;;;;;;;;;11.30;99.90;;;;;;5055973;28;20463;-70
2022/09/25 07:00:46;;;;;;;;;;;11.40;99.90;;;;;;5047956;28;19980;-71
2022/09/25 07:05:59;;;;;;;2.45;0.70;;;11.40;99.90;;;;;;5050420;28;20044;-70
2022/09/25 07:08:24;;;;;;;5.32;1.10;;;11.40;99.90;;;;;;5071764;28;20379;-70
2022/09/25 07:10:52;;;;;;;2.90;0.90;;;11.50;99.90;;;;;;5061708;28;20040;-70
2022/09/25 07:13:23;;;;;;;3.72;1.05;;;11.50;99.90;;;;;;5058431;28;20396;-70
2022/09/25 07:15:52;;;;;;;2.72;0.77;;;11.60;99.90;;;;;;5060326;28;20338;-70
2022/09/25 07:18:18;;;;;;;2.53;0.70;;;11.60;99.90;;;;;;5058263;28;20055;-71
2022/09/25 07:20:46;;;;;;;3.75;0.70;;;11.60;99.90;;;;;;5055053;28;20044;-71
2022/09/25 07:23:13;;;;;;;3.95;0.98;;;11.70;99.90;;;;;;5057109;28;20058;-71
2022/09/25 07:25:39;;;;;;;6.85;0.93;;;11.80;99.90;;;;;;5040520;28;20123;-71
2022/09/25 07:28:06;;;;;;;9.98;0.70;;;11.80;99.90;;;;;;5061602;28;20043;-71
2022/09/25 07:30:32;;;;;;;4.32;0.40;;;11.80;99.90;;;;;;5056714;28;20591;-71
2022/09/25 07:32:58;;;;;;;5.65;0.95;;;11.90;99.90;;;;;;5062805;28;20143;-70
2022/09/25 07:35:23;;;;;;;3.30;0.83;;;11.90;99.90;;;;;;5062589;28;20214;-71
2022/09/25 07:37:49;;;;;;;1.42;0.40;;;12.00;99.90;;;;;;5061164;28;20120;-71
2022/09/25 07:40:15;;;;;;;3.70;0.40;;;12.00;99.90;;;;;;5054681;28;20109;-71
2022/09/25 07:42:41;;;;;;;0.80;0.50;;;12.10;99.90;;;;;;5054623;28;20106;-70
2022/09/25 07:45:07;;;;;;;0.75;0.40;;;12.10;99.90;;;;;;5058388;28;20401;-71
2022/09/25 07:47:33;;;;;;;4.15;0.65;;;12.10;99.90;;;;;;5053180;28;20044;-70
2022/09/25 07:49:59;;;;;;;4.80;0.40;;;12.20;99.90;;;;;;5057435;28;20504;-72
2022/09/25 07:52:24;;;;;;;1.60;0.60;;;12.30;99.90;;;;;;5042529;28;20253;-71
2022/09/25 07:54:50;;;;;;;1.57;0.50;;;12.20;99.90;;;;;;5054333;28;21063;-72
2022/09/25 07:57:19;;;;;;;0.73;0.40;;;12.30;99.90;;;;;;5054907;28;20040;-71
2022/09/25 07:59:46;;;;;;;1.90;0.60;;;12.30;99.90;;;;;;5055031;28;20071;-71
2022/09/25 08:02:11;;;;;;;1.42;0.57;;;12.30;99.90;;;;;;5055793;28;20052;-71
2022/09/25 08:04:37;;;;;;;1.27;0.33;;;12.30;99.90;;;;;;5077737;22;20501;-73
2022/09/25 08:07:03;;;;;;;4.60;0.60;;;12.30;99.90;;;;;;5041981;28;20683;-73
2022/09/25 08:09:31;;;;;;;3.75;0.50;;;12.40;99.90;;;;;;5041838;28;20047;-72
2022/09/25 08:11:59;;;;;;;1.35;0.60;;;12.50;99.90;;;;;;5051869;28;20056;-72
2022/09/25 08:14:25;;;;;;;2.88;0.80;;;12.60;99.90;;;;;;5022319;28;20033;-73
2022/09/25 08:16:54;;;;;;;4.23;0.67;;;12.60;99.90;;;;;;5011923;28;20080;-73
2022/09/25 08:19:22;;;;;;;1.65;0.50;;;12.80;99.90;;;;;;5017084;28;20807;-73
2022/09/25 08:21:48;;;;;;;1.63;0.50;;;12.80;99.90;;;;;;5040330;28;20049;-73
2022/09/25 08:24:16;;;;;;;1.27;0.32;;;12.80;99.90;;;;;;5019098;28;20475;-73
2022/09/25 08:26:42;;;;;;;1.17;0.50;;;12.80;99.90;;;;;;5016073;28;20513;-73
2022/09/25 08:29:08;;;;;;;3.17;0.60;;;12.90;99.90;;;;;;5044798;28;20036;-73
2022/09/25 08:31:34;;;;;;;3.80;1.17;;;13.00;99.90;;;;;;5047389;28;20049;-73
2022/09/25 08:34:00;;;;;;;4.85;0.80;;;13.00;99.90;;;;;;5021287;28;20482;-73
2022/09/25 08:36:28;;;;;;;1.90;0.55;;;13.10;99.90;;;;;;5019721;28;20380;-73
2022/09/25 08:38:58;;;;;;;5.25;1.00;;;13.10;99.90;;;;;;5033692;28;20094;-72
2022/09/25 08:41:30;;;;;;;2.08;0.60;;;13.20;99.90;;;;;;5028356;28;20045;-73
2022/09/25 08:44:13;;;;;;;1.33;0.40;;;13.20;99.90;;;;;;5017837;28;20561;-73
2022/09/25 08:50:04;;;;;;;2.47;0.30;;;12.90;99.90;;;;;;5040655;28;20069;-73
2022/09/25 08:52:31;;;;;;;2.25;0.60;;;12.80;99.90;;;;;;5024921;28;20439;-73
2022/09/25 08:54:56;;;;;;;1.52;0.50;;;12.70;99.90;;;;;;5018472;28;20044;-73
2022/09/25 08:57:39;;;;;;;2.17;0.43;;;12.60;99.90;;;;;;5017228;28;20048;-72
2022/09/25 09:00:25;;;;;;;2.40;0.40;;;12.60;99.90;;;;;;5021870;28;20519;-73
2022/09/25 09:02:54;;;;;;;0.75;0.30;;;12.50;99.90;;;;;;5010490;28;20081;-72
2022/09/25 09:05:25;;;;;;;2.88;0.47;;;12.50;99.90;;;;;;5036807;28;20149;-72
2022/09/25 09:08:06;;;;;;;2.50;0.40;;;12.50;99.90;;;;;;5033267;28;20054;-72
2022/09/25 09:10:36;;;;;;;2.30;0.95;;;12.50;99.90;;;;;;5037227;28;20033;-73
2022/09/25 09:13:24;;;;;;;2.33;0.50;;;12.50;99.90;;;;;;5020475;28;20322;-73
2022/09/25 09:15:57;;;;;;;1.35;0.40;;;12.60;99.90;;;;;;5021993;28;20064;-72
2022/09/25 09:18:27;;;;;;;1.95;0.60;;;12.60;99.90;;;;;;5030081;28;20056;-73
2022/09/25 09:21:16;;;;;;;1.73;1.00;;;12.70;99.90;;;;;;5026184;28;20362;-72
2022/09/25 09:23:50;;;;;;;1.52;0.55;;;12.80;99.90;;;;;;5016207;28;20084;-72
2022/09/25 09:26:38;;;;;;;1.25;0.57;;;12.90;99.90;;;;;;5019756;28;20033;-73
2022/09/25 09:29:22;;;;;;;1.58;0.65;;;13.00;99.90;;;;;;5007380;28;20413;-73
2022/09/25 09:32:00;;;;;;;2.22;0.73;;;13.00;99.90;;;;;;5015884;28;20566;-73
2022/09/25 09:35:13;;;;;;;3.38;0.80;;;13.10;99.90;;;;;;5009478;28;20209;-73
2022/09/25 09:38:03;;;;;;;1.60;0.80;;;13.20;99.90;;;;;;4906709;28;20043;-73
2022/09/25 09:40:41;;;;;;;2.78;0.63;;;13.20;99.90;;;;;;4919030;28;20042;-73
2022/09/25 09:43:30;;;;;;;2.30;0.40;;;13.30;99.90;;;;;;4995042;28;20041;-73
2022/09/25 09:45:55;;;;;;;1.55;0.57;;;13.40;99.90;;;;;;5030887;28;20414;-73
2022/09/25 09:48:35;;;;;;;2.53;0.50;;;13.50;99.90;;;;;;5041909;28;20108;-72
2022/09/25 09:51:22;;;;;;;1.98;0.52;;;13.50;99.90;;;;;;5020308;28;20693;-72
2022/09/25 09:53:53;;;;;;;2.42;0.82;;;13.60;99.90;;;;;;5042038;28;20120;-73
2022/09/25 09:56:32;;;;;;;1.80;0.52;;;13.70;99.90;;;;;;5034944;28;20229;-72
2022/09/25 09:59:02;;;;;;;3.40;0.40;;;13.80;99.90;;;;;;5013998;28;20198;-73
2022/09/25 10:01:33;;;;;;;2.33;0.65;;;13.80;99.90;;;;;;5021879;28;20045;-73
2022/09/25 10:04:28;;;;;;;2.90;0.40;;;14.00;99.90;;;;;;5021316;28;20049;-73
2022/09/25 10:06:58;;;;;;;3.05;0.50;;;14.00;99.90;;;;;;5012868;28;20041;-72
2022/09/25 10:09:26;;;;;;;0.90;0.38;;;14.10;99.90;;;;;;5037513;28;20040;-73
2022/09/25 10:12:14;;;;;;;3.08;0.73;;;14.10;99.90;;;;;;5021863;28;20046;-73
2022/09/25 10:14:44;;;;;;;1.80;0.50;;;14.20;99.90;;;;;;5032184;28;20047;-73
2022/09/25 10:17:10;;;;;;;1.90;0.30;;;14.30;99.90;;;;;;5007556;28;20498;-73
2022/09/25 10:20:00;;;;;;;3.33;0.50;;;14.40;99.90;;;;;;5017987;28;20037;-73
2022/09/25 10:22:39;;;;;;;1.00;0.30;;;14.50;99.90;;;;;;5015011;28;20140;-73
2022/09/25 10:25:05;;;;;;;3.40;0.43;;;14.60;99.90;;;;;;5013084;28;20376;-73
2022/09/25 10:27:36;;;;;;;1.13;0.20;;;14.70;99.90;;;;;;5012934;28;20502;-73
2022/09/25 10:30:05;;;;;;;0.73;0.20;;;14.80;99.90;;;;;;5033342;28;20036;-73
2022/09/25 10:32:58;;;;;;;5.50;0.63;;;14.90;99.90;;;;;;5032485;28;20078;-74
2022/09/25 10:35:36;;;;;;;0.98;0.40;;;15.00;99.90;;;;;;5014443;28;20059;-74
2022/09/25 10:38:02;;;;;;;2.17;0.50;;;15.00;99.90;;;;;;5022879;28;20037;-74
2022/09/25 10:40:33;;;;;;;0.98;0.10;;;14.90;99.90;;;;;;5015978;28;20305;-74
2022/09/25 10:43:22;;;;;;;2.78;0.52;;;14.90;99.90;;;;;;5016194;28;20037;-74
2022/09/25 10:46:02;;;;;;;1.25;0.40;;;15.00;99.90;;;;;;5006085;28;20089;-74
2022/09/25 10:51:23;;;;;;;1.77;0.40;;;15.10;99.90;;;;;;5020403;28;20049;-74
2022/09/25 10:54:08;;;;;;;1.73;0.30;;;15.10;99.90;;;;;;5018114;28;20064;-74
2022/09/25 10:56:37;;;;;;;3.90;0.57;;;15.10;99.90;;;;;;5019022;28;20190;-74
2022/09/25 10:59:17;;;;;;;3.53;0.57;;;15.00;99.90;;;;;;5022485;28;21447;-74
2022/09/25 11:01:43;;;;;;;0.98;0.20;;;14.90;99.90;;;;;;5027285;28;20057;-74
2022/09/25 11:04:15;;;;;;;;;;;14.80;99.90;;;;;;5020161;28;20122;-74
2022/09/25 11:06:47;;;;;;;1.80;0.80;;;14.70;99.90;;;;;;5028257;28;21175;-74
2022/09/25 11:09:21;;;;;;;0.55;0.30;;;14.60;99.90;;;;;;5016139;28;20036;-74
2022/09/25 11:11:53;;;;;;;0.75;0.30;;;14.60;99.90;;;;;;5034260;28;20041;-74
2022/09/25 11:14:30;;;;;;;0.93;0.30;;;14.50;99.90;;;;;;5034800;28;20051;-74
2022/09/25 11:16:59;;;;;;;1.88;0.35;;;14.50;99.90;;;;;;5027752;28;20560;-74
2022/09/25 11:19:37;;;;;;;0.45;0.13;;;14.40;99.90;;;;;;5027246;28;20099;-74
2022/09/25 11:22:26;;;;;;;0.77;0.22;;;14.40;99.90;;;;;;5040438;28;20420;-74
2022/09/25 11:25:17;;;;;;;0.60;0.25;;;14.50;99.90;;;;;;5022483;28;20129;-74
2022/09/25 11:27:53;;;;;;;0.80;0.32;;;14.50;99.90;;;;;;5022478;28;20089;-73
2022/09/25 11:30:20;;;;;;;0.63;0.20;;;14.50;99.90;;;;;;5020487;28;20533;-74
2022/09/25 11:32:58;;;;;;;3.45;0.68;;;14.40;99.90;;;;;;5014836;28;20067;-81
2022/09/25 11:35:40;;;;;;;2.25;0.38;;;14.40;99.90;;;;;;5026965;28;20495;-77
2022/09/25 11:41:10;;;;;;;3.08;0.65;;;14.40;99.90;;;;;;5000895;28;20040;-82
2022/09/25 11:41:11;;;;;;;1.95;0.45;;;14.40;99.90;;;;;;5021051;28;20091;-76
2022/09/25 11:43:50;;;;;;;2.42;0.73;;;14.40;99.90;;;;;;5019730;28;20148;-77
2022/09/25 11:46:23;;;;;;;1.58;0.43;;;14.40;99.90;;;;;;5018118;28;20074;-74
2022/09/25 11:49:17;;;;;;;3.47;0.43;;;14.40;99.90;;;;;;5032911;28;20056;-75
2022/09/25 11:52:07;;;;;;;2.85;0.32;;;14.50;99.90;;;;;;5026262;28;20049;-74
2022/09/25 11:54:44;;;;;;;1.35;0.43;;;14.60;99.90;;;;;;5027751;28;20136;-75
2022/09/25 11:57:54;;;;;;;0.50;0.15;;;14.60;99.90;;;;;;5021496;28;20040;-76
2022/09/25 12:00:45;;;;;;;1.70;0.40;;;14.60;99.90;;;;;;5012529;28;20128;-78
2022/09/25 12:03:48;;;;;;;1.75;0.60;;;14.60;99.90;;;;;;5033966;28;20037;-80
2022/09/25 12:07:01;;;;;;;1.45;0.20;;;14.70;99.90;;;;;;5020738;28;20036;-77
2022/09/25 12:09:45;;;;;;;1.45;0.28;;;14.70;99.90;;;;;;5006630;28;20037;-79
2022/09/25 12:12:19;;;;;;;2.28;0.70;;;14.80;99.90;;;;;;5019606;28;20082;-76
2022/09/25 12:14:47;;;;;;;4.55;0.73;;;14.70;99.90;;;;;;5039846;28;20124;-78
2022/09/25 12:17:36;;;;;;;3.28;0.47;;;14.90;99.90;;;;;;5040079;28;20040;-78
2022/09/25 12:20:29;;;;;;;4.20;0.40;;;14.90;99.90;;;;;;5032708;28;20033;-74
2022/09/25 12:23:16;;;;;;;2.88;0.52;;;15.00;99.90;;;;;;5034786;28;20256;-74
2022/09/25 12:25:51;;;;;;;1.33;0.40;;;15.10;99.90;;;;;;4992418;28;20067;-74
2022/09/25 12:28:28;;;;;;;2.58;0.45;;;15.10;99.90;;;;;;5047768;28;20405;-74
2022/09/25 12:30:54;;;;;;;3.15;0.30;;;15.30;99.90;;;;;;5015385;28;20037;-75
2022/09/25 12:33:40;;;;;;;0.80;0.20;;;15.50;99.90;;;;;;5028773;28;20123;-74
2022/09/25 12:36:21;;;;;;;3.58;0.20;;;15.70;99.90;;;;;;5042212;28;20041;-75
2022/09/25 12:39:00;;;;;;;0.60;0.15;;;15.80;99.90;;;;;;5023230;28;20092;-74
2022/09/25 12:41:33;;;;;;;0.55;0.20;;;16.00;99.90;;;;;;5024284;28;20408;-75
2022/09/25 12:44:13;;;;;;;3.08;0.30;;;16.20;99.90;;;;;;5018872;28;20068;-74
2022/09/25 12:46:50;;;;;;;1.35;0.38;;;16.40;99.90;;;;;;5025553;28;20041;-75
2022/09/25 12:49:33;;;;;;;3.67;0.20;;;16.40;99.90;;;;;;5021378;28;20127;-74
2022/09/25 12:52:11;;;;;;;0.70;0.20;;;16.30;99.90;;;;;;5034014;28;20037;-74
2022/09/25 12:55:01;;;;;;;2.08;0.55;;;16.30;99.90;;;;;;5022018;28;20084;-74
2022/09/25 12:57:32;;;;;;;1.55;0.17;;;16.30;99.90;;;;;;5022353;28;20471;-74
2022/09/25 13:00:22;;;;;;;0.82;0.30;;;16.40;99.90;;;;;;5020368;28;20871;-74
2022/09/25 13:02:57;;;;;;;0.95;0.20;;;16.60;99.90;;;;;;5009094;28;20164;-74
2022/09/25 13:05:43;;;;;;;0.90;0.30;;;16.80;99.90;;;;;;5018444;28;20053;-74
2022/09/25 13:08:24;;;;;;;1.52;0.40;;;17.00;99.90;;;;;;5024248;28;20195;-74
2022/09/25 13:11:44;;;;;;;1.17;0.22;;;17.10;99.90;;;;;;5027193;28;20230;-75
2022/09/25 13:14:23;;;;;;;0.75;0.20;;;17.20;99.90;;;;;;4985159;28;20072;-74
2022/09/25 13:16:49;;;;;;;2.05;0.32;;;17.30;99.90;;;;;;5041794;28;20033;-75
2022/09/25 13:19:27;;;;;;;2.90;0.57;;;17.40;99.90;;;;;;5040464;28;20044;-74
2022/09/25 13:22:23;;;;;;;3.55;0.30;;;17.50;99.90;;;;;;5025585;28;20056;-74
2022/09/25 13:25:13;;;;;;;0.80;0.15;;;17.70;99.90;;;;;;5036718;28;20484;-74
2022/09/25 13:27:42;;;;;;;1.40;0.17;;;17.80;99.90;;;;;;5036344;28;20048;-75
2022/09/25 13:30:24;;;;;;;0.90;0.45;;;17.80;99.90;;;;;;5041326;28;20037;-74
2022/09/25 13:33:01;;;;;;;0.22;0.10;;;17.90;99.90;;;;;;5020136;28;20044;-74
2022/09/25 13:35:30;;;;;;;2.40;0.22;;;18.00;99.90;;;;;;5021788;28;20484;-74
2022/09/25 13:38:12;;;;;;;1.13;0.30;;;18.00;99.90;;;;;;5042851;28;20040;-74